sensor_id;sensor_type;location;lat;lon;timestamp;pressure;altitude;pressure_sealevel;temperature;humidity
6134;BME280;3098;42.678;23.364;2023-04-15T00:00:57;94150.72;;;6.48;100.00
6134;BME280;3098;42.678;23.364;2023-04-15T00:03:24;94140.72;;;6.36;100.00
6134;BME280;3098;42.678;23.364;2023-04-15T00:05:51;94100.13;;;5.79;100.00
6134;BME280;3098;42.678;23.364;2023-04-15T00:08:18;94140.03;;;6.09;100.00
6134;BME280;3098;42.678;23.364;2023-04-15T00:10:46;94170.22;;;6.25;100.00
6134;BME280;3098;42.678;23.364;2023-04-15T00:13:14;94194.84;;;6.43;100.00
6134;BME280;3098;42.678;23.364;2023-04-15T00:15:41;94182.38;;;6.57;100.00
6134;BME280;3098;42.678;23.364;2023-04-15T00:18:09;94114.75;;;6.21;100.00
6134;BME280;3098;42.678;23.364;2023-04-15T00:20:36;94177.84;;;6.71;100.00
6134;BME280;3098;42.678;23.364;2023-04-15T00:23:03;94176.94;;;6.75;100.00
6134;BME280;3098;42.678;23.364;2023-04-15T00:25:30;94139.91;;;6.50;100.00
6134;BME280;3098;42.678;23.364;2023-04-15T00:27:57;94147.84;;;6.58;100.00
6134;BME280;3098;42.678;23.364;2023-04-15T00:30:24;94176.69;;;6.85;100.00
6134;BME280;3098;42.678;23.364;2023-04-15T00:32:51;94170.22;;;6.91;100.00
6134;BME280;3098;42.678;23.364;2023-04-15T00:35:19;94141.03;;;6.88;100.00
6134;BME280;3098;42.678;23.364;2023-04-15T00:37:46;94167.44;;;6.97;100.00
6134;BME280;3098;42.678;23.364;2023-04-15T00:40:16;94164.69;;;7.02;100.00
6134;BME280;3098;42.678;23.364;2023-04-15T00:42:44;94147.75;;;6.94;100.00
6134;BME280;3098;42.678;23.364;2023-04-15T00:45:11;94155.25;;;6.78;100.00
6134;BME280;3098;42.678;23.364;2023-04-15T00:47:40;94183.94;;;6.80;100.00
6134;BME280;3098;42.678;23.364;2023-04-15T00:50:08;94146.88;;;6.54;100.00
6134;BME280;3098;42.678;23.364;2023-04-15T00:52:36;94191.53;;;6.81;100.00
6134;BME280;3098;42.678;23.364;2023-04-15T00:55:04;94176.44;;;6.73;100.00
6134;BME280;3098;42.678;23.364;2023-04-15T00:57:32;94173.22;;;6.76;100.00
6134;BME280;3098;42.678;23.364;2023-04-15T00:59:59;94182.75;;;6.86;100.00
6134;BME280;3098;42.678;23.364;2023-04-15T01:02:26;94180.06;;;6.77;100.00
6134;BME280;3098;42.678;23.364;2023-04-15T01:04:53;94177.59;;;6.59;100.00
6134;BME280;3098;42.678;23.364;2023-04-15T01:07:22;94137.81;;;6.38;100.00
6134;BME280;3098;42.678;23.364;2023-04-15T01:09:51;94194.94;;;6.82;100.00
6134;BME280;3098;42.678;23.364;2023-04-15T01:12:19;94127.06;;;6.34;100.00
6134;BME280;3098;42.678;23.364;2023-04-15T01:14:46;94188.94;;;6.90;100.00
6134;BME280;3098;42.678;23.364;2023-04-15T01:17:13;94070.88;;;6.17;100.00
6134;BME280;3098;42.678;23.364;2023-04-15T01:19:40;94111.69;;;6.50;100.00
6134;BME280;3098;42.678;23.364;2023-04-15T01:22:07;94183.13;;;7.02;100.00
6134;BME280;3098;42.678;23.364;2023-04-15T01:24:34;94183.03;;;7.15;100.00
6134;BME280;3098;42.678;23.364;2023-04-15T01:27:04;94154.44;;;7.00;100.00
6134;BME280;3098;42.678;23.364;2023-04-15T01:29:31;94166.63;;;7.18;100.00
6134;BME280;3098;42.678;23.364;2023-04-15T01:31:59;94114.94;;;6.78;100.00
6134;BME280;3098;42.678;23.364;2023-04-15T01:34:26;94168.88;;;7.03;100.00
6134;BME280;3098;42.678;23.364;2023-04-15T01:36:53;94172.72;;;6.97;100.00
6134;BME280;3098;42.678;23.364;2023-04-15T01:39:20;94152.59;;;6.78;100.00
6134;BME280;3098;42.678;23.364;2023-04-15T01:41:47;94178.06;;;6.83;100.00
6134;BME280;3098;42.678;23.364;2023-04-15T01:44:15;94171.50;;;6.72;100.00
6134;BME280;3098;42.678;23.364;2023-04-15T01:46:42;94186.31;;;6.90;100.00
6134;BME280;3098;42.678;23.364;2023-04-15T01:49:09;94184.13;;;6.83;100.00
6134;BME280;3098;42.678;23.364;2023-04-15T01:51:36;94144.44;;;6.58;100.00
6134;BME280;3098;42.678;23.364;2023-04-15T01:54:03;94153.13;;;6.58;100.00
6134;BME280;3098;42.678;23.364;2023-04-15T01:56:31;94044.72;;;5.76;100.00
6134;BME280;3098;42.678;23.364;2023-04-15T01:58:57;94157.72;;;6.30;100.00
6134;BME280;3098;42.678;23.364;2023-04-15T02:01:26;94157.53;;;6.27;100.00
6134;BME280;3098;42.678;23.364;2023-04-15T02:03:53;94135.13;;;6.16;100.00
6134;BME280;3098;42.678;23.364;2023-04-15T02:06:20;94106.22;;;6.02;100.00
6134;BME280;3098;42.678;23.364;2023-04-15T02:08:47;94193.00;;;6.65;100.00
6134;BME280;3098;42.678;23.364;2023-04-15T02:11:15;94004.38;;;5.45;100.00
6134;BME280;3098;42.678;23.364;2023-04-15T02:13:42;94039.03;;;5.47;100.00
6134;BME280;3098;42.678;23.364;2023-04-15T02:16:15;94189.81;;;6.55;100.00
6134;BME280;3098;42.678;23.364;2023-04-15T02:18:44;94185.09;;;6.65;100.00
6134;BME280;3098;42.678;23.364;2023-04-15T02:21:11;94187.84;;;6.60;100.00
6134;BME280;3098;42.678;23.364;2023-04-15T02:23:38;94181.91;;;6.55;100.00
6134;BME280;3098;42.678;23.364;2023-04-15T02:26:06;94178.31;;;6.51;100.00
6134;BME280;3098;42.678;23.364;2023-04-15T02:28:33;94173.63;;;6.48;100.00
6134;BME280;3098;42.678;23.364;2023-04-15T02:31:00;94169.34;;;6.29;100.00
6134;BME280;3098;42.678;23.364;2023-04-15T02:33:30;94155.50;;;6.24;100.00
6134;BME280;3098;42.678;23.364;2023-04-15T02:35:59;94175.06;;;6.31;100.00
6134;BME280;3098;42.678;23.364;2023-04-15T02:38:26;94176.31;;;6.12;100.00
6134;BME280;3098;42.678;23.364;2023-04-15T02:40:52;94155.09;;;5.95;100.00
6134;BME280;3098;42.678;23.364;2023-04-15T02:43:19;94093.97;;;5.48;100.00
6134;BME280;3098;42.678;23.364;2023-04-15T02:45:47;94156.00;;;5.90;100.00
6134;BME280;3098;42.678;23.364;2023-04-15T02:48:14;94165.50;;;6.00;100.00
6134;BME280;3098;42.678;23.364;2023-04-15T02:50:44;94180.16;;;5.92;100.00
6134;BME280;3098;42.678;23.364;2023-04-15T02:53:13;94158.34;;;5.64;100.00
6134;BME280;3098;42.678;23.364;2023-04-15T02:55:40;94161.66;;;5.56;100.00
6134;BME280;3098;42.678;23.364;2023-04-15T02:58:07;94175.19;;;5.63;100.00
6134;BME280;3098;42.678;23.364;2023-04-15T03:00:34;94143.97;;;4.61;100.00
6134;BME280;3098;42.678;23.364;2023-04-15T03:03:04;94182.69;;;4.37;100.00
6134;BME280;3098;42.678;23.364;2023-04-15T03:05:31;94143.03;;;4.20;100.00
6134;BME280;3098;42.678;23.364;2023-04-15T03:07:58;94202.09;;;4.55;100.00
6134;BME280;3098;42.678;23.364;2023-04-15T03:10:26;94205.38;;;4.47;100.00
6134;BME280;3098;42.678;23.364;2023-04-15T03:12:53;94205.69;;;4.45;100.00
6134;BME280;3098;42.678;23.364;2023-04-15T03:15:20;94207.66;;;4.35;100.00
6134;BME280;3098;42.678;23.364;2023-04-15T03:17:47;94166.91;;;4.05;100.00
6134;BME280;3098;42.678;23.364;2023-04-15T03:20:15;94211.38;;;4.34;100.00
6134;BME280;3098;42.678;23.364;2023-04-15T03:22:42;94225.25;;;4.34;100.00
6134;BME280;3098;42.678;23.364;2023-04-15T03:25:09;94174.34;;;3.79;100.00
6134;BME280;3098;42.678;23.364;2023-04-15T03:27:37;94215.56;;;4.16;100.00
6134;BME280;3098;42.678;23.364;2023-04-15T03:30:05;94194.75;;;3.82;100.00
6134;BME280;3098;42.678;23.364;2023-04-15T03:32:33;94239.94;;;3.98;100.00
6134;BME280;3098;42.678;23.364;2023-04-15T03:35:00;94231.63;;;4.10;100.00
6134;BME280;3098;42.678;23.364;2023-04-15T03:37:27;94234.25;;;4.10;100.00
6134;BME280;3098;42.678;23.364;2023-04-15T03:39:53;94240.28;;;4.29;100.00
6134;BME280;3098;42.678;23.364;2023-04-15T03:42:20;94190.75;;;4.09;100.00
6134;BME280;3098;42.678;23.364;2023-04-15T03:44:49;94235.47;;;4.36;100.00
6134;BME280;3098;42.678;23.364;2023-04-15T03:47:16;94251.66;;;4.43;100.00
6134;BME280;3098;42.678;23.364;2023-04-15T03:49:42;94137.84;;;3.83;100.00
6134;BME280;3098;42.678;23.364;2023-04-15T03:52:09;94248.97;;;4.48;100.00
6134;BME280;3098;42.678;23.364;2023-04-15T03:54:36;94259.94;;;4.69;100.00
6134;BME280;3098;42.678;23.364;2023-04-15T03:57:03;94268.59;;;4.69;100.00
6134;BME280;3098;42.678;23.364;2023-04-15T03:59:30;94263.19;;;4.79;100.00
6134;BME280;3098;42.678;23.364;2023-04-15T04:01:59;94254.66;;;4.87;100.00
6134;BME280;3098;42.678;23.364;2023-04-15T04:04:26;94229.50;;;4.68;100.00
6134;BME280;3098;42.678;23.364;2023-04-15T04:06:53;94258.78;;;4.93;100.00
6134;BME280;3098;42.678;23.364;2023-04-15T04:09:20;94270.03;;;4.94;100.00
6134;BME280;3098;42.678;23.364;2023-04-15T04:11:47;94267.88;;;4.82;100.00
6134;BME280;3098;42.678;23.364;2023-04-15T04:14:14;94260.94;;;4.73;100.00
6134;BME280;3098;42.678;23.364;2023-04-15T04:16:41;94260.69;;;4.88;100.00
6134;BME280;3098;42.678;23.364;2023-04-15T04:19:10;94264.75;;;5.12;100.00
6134;BME280;3098;42.678;23.364;2023-04-15T04:21:39;94150.81;;;4.44;100.00
6134;BME280;3098;42.678;23.364;2023-04-15T04:24:06;94204.97;;;4.72;100.00
6134;BME280;3098;42.678;23.364;2023-04-15T04:26:33;94203.84;;;4.78;100.00
6134;BME280;3098;42.678;23.364;2023-04-15T04:29:00;94233.50;;;5.11;100.00
6134;BME280;3098;42.678;23.364;2023-04-15T04:31:27;94220.19;;;5.21;100.00
6134;BME280;3098;42.678;23.364;2023-04-15T04:33:54;94272.03;;;5.61;100.00
6134;BME280;3098;42.678;23.364;2023-04-15T04:36:22;94269.91;;;5.77;100.00
6134;BME280;3098;42.678;23.364;2023-04-15T04:38:49;94269.75;;;5.87;100.00
6134;BME280;3098;42.678;23.364;2023-04-15T04:41:16;94244.97;;;5.88;100.00
6134;BME280;3098;42.678;23.364;2023-04-15T04:43:43;94242.34;;;5.88;100.00
6134;BME280;3098;42.678;23.364;2023-04-15T04:46:10;94275.44;;;6.16;100.00
6134;BME280;3098;42.678;23.364;2023-04-15T04:48:37;94280.72;;;6.30;100.00
6134;BME280;3098;42.678;23.364;2023-04-15T04:51:05;94239.28;;;6.08;100.00
6134;BME280;3098;42.678;23.364;2023-04-15T04:53:33;94280.78;;;6.38;100.00
6134;BME280;3098;42.678;23.364;2023-04-15T04:56:02;94236.78;;;6.03;100.00
6134;BME280;3098;42.678;23.364;2023-04-15T04:58:29;94281.72;;;6.56;100.00
6134;BME280;3098;42.678;23.364;2023-04-15T05:00:56;94288.50;;;6.71;100.00
6134;BME280;3098;42.678;23.364;2023-04-15T05:03:23;94289.16;;;6.54;100.00
6134;BME280;3098;42.678;23.364;2023-04-15T05:05:50;94296.50;;;6.79;100.00
6134;BME280;3098;42.678;23.364;2023-04-15T05:08:17;94304.34;;;6.93;100.00
6134;BME280;3098;42.678;23.364;2023-04-15T05:10:45;94242.22;;;6.78;100.00
6134;BME280;3098;42.678;23.364;2023-04-15T05:13:12;94240.66;;;6.77;100.00
6134;BME280;3098;42.678;23.364;2023-04-15T05:15:39;94305.56;;;7.09;100.00
6134;BME280;3098;42.678;23.364;2023-04-15T05:18:07;94323.72;;;7.33;100.00
6134;BME280;3098;42.678;23.364;2023-04-15T05:20:34;94303.25;;;7.38;100.00
6134;BME280;3098;42.678;23.364;2023-04-15T05:23:01;94312.75;;;7.39;100.00
6134;BME280;3098;42.678;23.364;2023-04-15T05:25:28;94328.03;;;7.51;100.00
6134;BME280;3098;42.678;23.364;2023-04-15T05:27:56;94239.00;;;7.04;100.00
6134;BME280;3098;42.678;23.364;2023-04-15T05:30:24;94177.31;;;6.60;100.00
6134;BME280;3098;42.678;23.364;2023-04-15T05:32:51;94324.56;;;7.73;100.00
6134;BME280;3098;42.678;23.364;2023-04-15T05:35:18;94227.59;;;7.95;100.00
6134;BME280;3098;42.678;23.364;2023-04-15T05:37:45;94285.84;;;11.37;94.84
6134;BME280;3098;42.678;23.364;2023-04-15T05:40:12;94315.03;;;14.77;70.16
6134;BME280;3098;42.678;23.364;2023-04-15T05:42:39;94319.50;;;16.72;53.95
6134;BME280;3098;42.678;23.364;2023-04-15T05:45:09;94318.06;;;17.97;47.89
6134;BME280;3098;42.678;23.364;2023-04-15T05:47:36;94301.81;;;18.19;45.13
6134;BME280;3098;42.678;23.364;2023-04-15T05:50:03;94315.22;;;19.14;41.83
6134;BME280;3098;42.678;23.364;2023-04-15T05:52:31;94246.78;;;20.01;39.94
6134;BME280;3098;42.678;23.364;2023-04-15T05:54:58;94297.97;;;21.18;36.35
6134;BME280;3098;42.678;23.364;2023-04-15T05:57:25;94293.75;;;20.99;35.69
6134;BME280;3098;42.678;23.364;2023-04-15T05:59:53;94336.16;;;22.17;34.67
6134;BME280;3098;42.678;23.364;2023-04-15T06:02:23;94315.50;;;23.00;33.26
6134;BME280;3098;42.678;23.364;2023-04-15T06:04:49;94174.03;;;20.76;33.90
6134;BME280;3098;42.678;23.364;2023-04-15T06:07:17;94350.22;;;21.88;33.15
6134;BME280;3098;42.678;23.364;2023-04-15T06:09:43;94285.59;;;22.21;32.67
6134;BME280;3098;42.678;23.364;2023-04-15T06:12:11;94342.84;;;22.64;32.26
6134;BME280;3098;42.678;23.364;2023-04-15T06:14:38;94318.91;;;22.66;31.36
6134;BME280;3098;42.678;23.364;2023-04-15T06:17:07;94355.88;;;22.80;31.39
6134;BME280;3098;42.678;23.364;2023-04-15T06:19:35;94227.69;;;19.20;34.57
6134;BME280;3098;42.678;23.364;2023-04-15T06:22:03;94347.50;;;19.93;35.98
6134;BME280;3098;42.678;23.364;2023-04-15T06:24:32;94341.19;;;22.15;33.17
6134;BME280;3098;42.678;23.364;2023-04-15T06:26:59;94356.16;;;21.05;33.61
6134;BME280;3098;42.678;23.364;2023-04-15T06:29:26;94222.41;;;21.29;32.70
6134;BME280;3098;42.678;23.364;2023-04-15T06:31:54;94369.22;;;22.43;32.15
6134;BME280;3098;42.678;23.364;2023-04-15T06:34:22;94195.56;;;20.90;32.89
6134;BME280;3098;42.678;23.364;2023-04-15T06:36:50;94335.81;;;18.89;35.85
6134;BME280;3098;42.678;23.364;2023-04-15T06:39:19;94380.41;;;17.83;39.27
6134;BME280;3098;42.678;23.364;2023-04-15T06:41:46;94351.03;;;20.12;36.06
6134;BME280;3098;42.678;23.364;2023-04-15T06:44:13;94373.34;;;21.82;34.87
6134;BME280;3098;42.678;23.364;2023-04-15T06:46:40;94379.28;;;19.05;36.22
6134;BME280;3098;42.678;23.364;2023-04-15T06:49:07;94372.22;;;20.20;35.66
6134;BME280;3098;42.678;23.364;2023-04-15T06:51:34;94324.38;;;19.78;36.58
6134;BME280;3098;42.678;23.364;2023-04-15T06:54:03;94346.41;;;17.94;39.50
6134;BME280;3098;42.678;23.364;2023-04-15T06:56:30;94383.50;;;21.10;35.25
6134;BME280;3098;42.678;23.364;2023-04-15T06:58:57;94342.69;;;20.94;34.56
6134;BME280;3098;42.678;23.364;2023-04-15T07:01:24;94364.13;;;21.72;32.56
6134;BME280;3098;42.678;23.364;2023-04-15T07:03:52;94374.16;;;21.68;32.71
6134;BME280;3098;42.678;23.364;2023-04-15T07:06:19;94384.00;;;22.20;32.29
6134;BME280;3098;42.678;23.364;2023-04-15T07:08:46;94318.66;;;21.60;31.85
6134;BME280;3098;42.678;23.364;2023-04-15T07:11:14;94391.06;;;22.73;31.72
6134;BME280;3098;42.678;23.364;2023-04-15T07:13:41;94352.28;;;24.39;29.01
6134;BME280;3098;42.678;23.364;2023-04-15T07:16:08;94356.94;;;23.75;29.50
6134;BME280;3098;42.678;23.364;2023-04-15T07:18:35;94361.16;;;21.13;32.67
6134;BME280;3098;42.678;23.364;2023-04-15T07:21:02;94344.41;;;22.62;31.32
6134;BME280;3098;42.678;23.364;2023-04-15T07:23:30;94380.34;;;23.92;30.29
6134;BME280;3098;42.678;23.364;2023-04-15T07:25:57;94386.31;;;23.76;30.93
6134;BME280;3098;42.678;23.364;2023-04-15T07:28:25;94393.47;;;20.64;33.89
6134;BME280;3098;42.678;23.364;2023-04-15T07:30:52;94396.09;;;21.77;33.99
6134;BME280;3098;42.678;23.364;2023-04-15T07:33:19;94355.66;;;20.15;34.95
6134;BME280;3098;42.678;23.364;2023-04-15T07:35:46;94366.88;;;20.41;35.54
6134;BME280;3098;42.678;23.364;2023-04-15T07:38:13;94193.00;;;18.87;35.69
6134;BME280;3098;42.678;23.364;2023-04-15T07:40:40;94390.44;;;21.40;33.87
6134;BME280;3098;42.678;23.364;2023-04-15T07:43:07;94382.13;;;22.10;32.85
6134;BME280;3098;42.678;23.364;2023-04-15T07:45:36;94279.88;;;21.22;33.18
6134;BME280;3098;42.678;23.364;2023-04-15T07:48:04;94382.69;;;21.56;33.46
6134;BME280;3098;42.678;23.364;2023-04-15T07:50:32;94393.31;;;23.70;29.95
6134;BME280;3098;42.678;23.364;2023-04-15T07:52:59;94398.41;;;25.16;28.67
6134;BME280;3098;42.678;23.364;2023-04-15T07:55:26;94397.78;;;23.50;30.38
6134;BME280;3098;42.678;23.364;2023-04-15T07:57:55;94401.16;;;22.58;31.23
6134;BME280;3098;42.678;23.364;2023-04-15T08:00:22;94297.50;;;24.25;28.46
6134;BME280;3098;42.678;23.364;2023-04-15T08:02:51;94406.22;;;23.56;29.35
6134;BME280;3098;42.678;23.364;2023-04-15T08:05:19;94367.25;;;21.46;31.99
6134;BME280;3098;42.678;23.364;2023-04-15T08:07:46;94389.66;;;19.65;34.82
6134;BME280;3098;42.678;23.364;2023-04-15T08:10:13;94399.84;;;19.34;36.56
6134;BME280;3098;42.678;23.364;2023-04-15T08:12:40;94278.78;;;20.35;34.92
6134;BME280;3098;42.678;23.364;2023-04-15T08:15:08;94303.41;;;20.76;33.38
6134;BME280;3098;42.678;23.364;2023-04-15T08:17:35;94377.66;;;22.52;31.37
6134;BME280;3098;42.678;23.364;2023-04-15T08:20:05;94398.88;;;23.93;30.08
6134;BME280;3098;42.678;23.364;2023-04-15T08:22:32;94394.72;;;24.80;28.50
6134;BME280;3098;42.678;23.364;2023-04-15T08:25:00;94370.97;;;24.61;27.45
6134;BME280;3098;42.678;23.364;2023-04-15T08:27:28;94406.66;;;24.25;28.77
6134;BME280;3098;42.678;23.364;2023-04-15T08:29:55;94399.91;;;22.77;30.06
6134;BME280;3098;42.678;23.364;2023-04-15T08:32:22;94370.53;;;24.01;27.80
6134;BME280;3098;42.678;23.364;2023-04-15T08:34:51;94332.66;;;23.64;28.97
6134;BME280;3098;42.678;23.364;2023-04-15T08:37:19;94323.66;;;22.45;30.69
6134;BME280;3098;42.678;23.364;2023-04-15T08:39:47;94401.22;;;21.18;32.94
6134;BME280;3098;42.678;23.364;2023-04-15T08:42:16;94292.97;;;20.95;31.95
6134;BME280;3098;42.678;23.364;2023-04-15T08:47:13;94384.63;;;21.41;31.97
6134;BME280;3098;42.678;23.364;2023-04-15T08:49:44;94340.09;;;19.62;35.37
6134;BME280;3098;42.678;23.364;2023-04-15T08:52:13;94379.03;;;19.93;35.58
6134;BME280;3098;42.678;23.364;2023-04-15T08:54:42;94318.69;;;18.60;36.16
6134;BME280;3098;42.678;23.364;2023-04-15T08:57:09;94355.03;;;19.49;35.26
6134;BME280;3098;42.678;23.364;2023-04-15T08:59:36;94284.47;;;18.50;35.44
6134;BME280;3098;42.678;23.364;2023-04-15T09:02:04;94351.88;;;20.26;33.31
6134;BME280;3098;42.678;23.364;2023-04-15T09:04:32;94344.59;;;18.05;35.92
6134;BME280;3098;42.678;23.364;2023-04-15T09:06:59;94342.34;;;18.07;36.67
6134;BME280;3098;42.678;23.364;2023-04-15T09:09:26;94288.16;;;18.35;35.42
6134;BME280;3098;42.678;23.364;2023-04-15T09:11:55;94357.13;;;19.91;33.58
6134;BME280;3098;42.678;23.364;2023-04-15T09:14:22;94369.22;;;21.06;30.70
6134;BME280;3098;42.678;23.364;2023-04-15T09:16:56;94234.81;;;20.98;29.45
6134;BME280;3098;42.678;23.364;2023-04-15T09:19:24;94348.66;;;19.92;31.90
6134;BME280;3098;42.678;23.364;2023-04-15T09:21:53;94335.72;;;20.26;32.51
6134;BME280;3098;42.678;23.364;2023-04-15T09:24:25;94261.41;;;21.17;30.24
6134;BME280;3098;42.678;23.364;2023-04-15T09:27:00;94334.97;;;20.72;30.88
6134;BME280;3098;42.678;23.364;2023-04-15T09:29:28;94202.59;;;20.34;30.07
6134;BME280;3098;42.678;23.364;2023-04-15T09:31:54;94346.84;;;20.25;30.99
6134;BME280;3098;42.678;23.364;2023-04-15T09:34:34;94351.91;;;20.54;31.61
6134;BME280;3098;42.678;23.364;2023-04-15T09:37:01;94348.03;;;21.01;30.34
6134;BME280;3098;42.678;23.364;2023-04-15T09:39:44;94344.97;;;20.92;30.37
6134;BME280;3098;42.678;23.364;2023-04-15T09:42:13;94326.09;;;20.60;30.74
6134;BME280;3098;42.678;23.364;2023-04-15T09:44:42;94349.19;;;20.37;31.59
6134;BME280;3098;42.678;23.364;2023-04-15T09:47:09;94349.22;;;19.43;31.73
6134;BME280;3098;42.678;23.364;2023-04-15T09:49:55;94310.63;;;19.97;31.47
6134;BME280;3098;42.678;23.364;2023-04-15T09:52:23;94311.84;;;19.28;31.99
6134;BME280;3098;42.678;23.364;2023-04-15T09:54:52;94328.06;;;18.80;33.05
6134;BME280;3098;42.678;23.364;2023-04-15T09:57:22;94360.84;;;19.07;32.55
6134;BME280;3098;42.678;23.364;2023-04-15T09:59:49;94359.75;;;19.12;31.88
6134;BME280;3098;42.678;23.364;2023-04-15T10:02:18;94336.91;;;18.81;32.51
6134;BME280;3098;42.678;23.364;2023-04-15T10:04:47;94352.94;;;18.30;32.87
6134;BME280;3098;42.678;23.364;2023-04-15T10:07:14;94287.28;;;18.64;33.26
6134;BME280;3098;42.678;23.364;2023-04-15T10:09:45;94328.91;;;19.49;31.88
6134;BME280;3098;42.678;23.364;2023-04-15T10:12:13;94324.47;;;20.10;30.55
6134;BME280;3098;42.678;23.364;2023-04-15T10:14:43;94337.28;;;20.59;30.15
6134;BME280;3098;42.678;23.364;2023-04-15T10:17:11;94340.34;;;20.79;30.96
6134;BME280;3098;42.678;23.364;2023-04-15T10:19:39;94338.72;;;21.59;28.48
6134;BME280;3098;42.678;23.364;2023-04-15T10:22:07;94302.53;;;21.42;28.48
6134;BME280;3098;42.678;23.364;2023-04-15T10:24:34;94267.94;;;19.99;29.97
6134;BME280;3098;42.678;23.364;2023-04-15T10:27:05;94317.25;;;21.13;28.45
6134;BME280;3098;42.678;23.364;2023-04-15T10:29:33;94313.28;;;19.90;28.78
6134;BME280;3098;42.678;23.364;2023-04-15T10:32:02;94306.50;;;20.60;28.01
6134;BME280;3098;42.678;23.364;2023-04-15T10:34:30;94292.03;;;19.57;29.12
6134;BME280;3098;42.678;23.364;2023-04-15T10:37:00;94268.00;;;20.28;28.29
6134;BME280;3098;42.678;23.364;2023-04-15T10:39:39;94213.19;;;19.39;28.64
6134;BME280;3098;42.678;23.364;2023-04-15T10:42:08;94302.16;;;20.02;29.39
6134;BME280;3098;42.678;23.364;2023-04-15T10:44:35;94275.63;;;20.04;29.09
6134;BME280;3098;42.678;23.364;2023-04-15T10:47:09;94313.03;;;20.73;28.41
6134;BME280;3098;42.678;23.364;2023-04-15T10:49:45;94288.63;;;19.74;29.36
6134;BME280;3098;42.678;23.364;2023-04-15T10:52:14;94284.91;;;20.81;28.75
6134;BME280;3098;42.678;23.364;2023-04-15T10:54:43;94309.25;;;18.80;30.92
6134;BME280;3098;42.678;23.364;2023-04-15T10:57:15;94222.03;;;18.16;31.83
6134;BME280;3098;42.678;23.364;2023-04-15T11:00:10;94309.13;;;18.63;31.62
6134;BME280;3098;42.678;23.364;2023-04-15T11:02:41;94309.91;;;18.63;31.47
6134;BME280;3098;42.678;23.364;2023-04-15T11:05:08;94258.38;;;19.09;30.71
6134;BME280;3098;42.678;23.364;2023-04-15T11:07:38;94301.47;;;20.30;29.67
6134;BME280;3098;42.678;23.364;2023-04-15T11:13:27;94299.53;;;20.94;28.97
6134;BME280;3098;42.678;23.364;2023-04-15T11:15:57;94271.00;;;19.98;29.36
6134;BME280;3098;42.678;23.364;2023-04-15T11:18:28;94286.91;;;19.34;30.41
6134;BME280;3098;42.678;23.364;2023-04-15T11:20:58;94214.13;;;18.92;30.72
6134;BME280;3098;42.678;23.364;2023-04-15T11:23:30;94288.59;;;19.60;29.93
6134;BME280;3098;42.678;23.364;2023-04-15T11:25:59;94222.88;;;19.58;29.37
6134;BME280;3098;42.678;23.364;2023-04-15T11:28:28;94232.06;;;19.46;30.70
6134;BME280;3098;42.678;23.364;2023-04-15T11:30:55;94289.53;;;20.84;29.14
6134;BME280;3098;42.678;23.364;2023-04-15T11:33:23;94231.50;;;18.47;30.11
6134;BME280;3098;42.678;23.364;2023-04-15T11:35:52;94295.47;;;18.85;30.57
6134;BME280;3098;42.678;23.364;2023-04-15T11:38:20;94249.44;;;19.80;29.28
6134;BME280;3098;42.678;23.364;2023-04-15T11:40:49;94308.03;;;20.40;28.58
6134;BME280;3098;42.678;23.364;2023-04-15T11:43:18;94112.56;;;19.50;27.97
6134;BME280;3098;42.678;23.364;2023-04-15T11:45:51;94295.09;;;19.52;29.64
6134;BME280;3098;42.678;23.364;2023-04-15T11:48:21;94238.34;;;20.03;26.91
6134;BME280;3098;42.678;23.364;2023-04-15T11:50:54;94284.44;;;19.80;24.58
6134;BME280;3098;42.678;23.364;2023-04-15T11:53:21;94286.78;;;20.14;24.51
6134;BME280;3098;42.678;23.364;2023-04-15T11:55:49;94271.06;;;20.47;24.59
6134;BME280;3098;42.678;23.364;2023-04-15T11:58:19;94246.44;;;20.56;24.03
6134;BME280;3098;42.678;23.364;2023-04-15T12:00:49;94278.34;;;21.00;24.41
6134;BME280;3098;42.678;23.364;2023-04-15T12:03:22;94264.94;;;20.57;24.14
6134;BME280;3098;42.678;23.364;2023-04-15T12:06:10;94274.94;;;19.21;25.46
6134;BME280;3098;42.678;23.364;2023-04-15T12:08:57;94281.78;;;20.05;24.97
6134;BME280;3098;42.678;23.364;2023-04-15T12:11:30;94273.31;;;19.99;24.79
6134;BME280;3098;42.678;23.364;2023-04-15T12:14:01;94223.28;;;19.70;24.08
6134;BME280;3098;42.678;23.364;2023-04-15T12:16:29;94278.97;;;19.63;24.80
6134;BME280;3098;42.678;23.364;2023-04-15T12:18:57;94269.09;;;19.05;24.79
6134;BME280;3098;42.678;23.364;2023-04-15T12:21:31;94271.19;;;18.71;25.45
6134;BME280;3098;42.678;23.364;2023-04-15T12:24:01;94145.78;;;17.33;25.17
6134;BME280;3098;42.678;23.364;2023-04-15T12:26:29;94261.47;;;18.56;25.29
6134;BME280;3098;42.678;23.364;2023-04-15T12:29:00;94266.78;;;19.04;25.35
6134;BME280;3098;42.678;23.364;2023-04-15T12:31:27;94272.81;;;19.55;25.02
6134;BME280;3098;42.678;23.364;2023-04-15T12:33:55;94267.09;;;19.81;25.23
6134;BME280;3098;42.678;23.364;2023-04-15T12:36:22;94277.38;;;19.44;25.18
6134;BME280;3098;42.678;23.364;2023-04-15T12:38:50;94176.28;;;17.99;26.39
6134;BME280;3098;42.678;23.364;2023-04-15T12:41:19;94281.66;;;18.90;26.33
6134;BME280;3098;42.678;23.364;2023-04-15T12:43:46;94273.69;;;19.05;25.81
6134;BME280;3098;42.678;23.364;2023-04-15T12:46:13;94238.22;;;18.74;25.86
6134;BME280;3098;42.678;23.364;2023-04-15T12:48:41;94238.31;;;18.37;26.79
6134;BME280;3098;42.678;23.364;2023-04-15T12:51:08;94285.28;;;19.12;26.96
6134;BME280;3098;42.678;23.364;2023-04-15T12:53:35;94258.56;;;19.47;26.42
6134;BME280;3098;42.678;23.364;2023-04-15T12:56:04;94283.75;;;19.22;26.67
6134;BME280;3098;42.678;23.364;2023-04-15T12:58:32;94208.06;;;19.09;26.81
6134;BME280;3098;42.678;23.364;2023-04-15T13:01:00;94277.97;;;19.09;26.17
6134;BME280;3098;42.678;23.364;2023-04-15T13:03:28;94130.13;;;18.33;26.23
6134;BME280;3098;42.678;23.364;2023-04-15T13:05:55;94271.16;;;19.29;26.28
6134;BME280;3098;42.678;23.364;2023-04-15T13:08:22;94282.16;;;19.03;26.54
6134;BME280;3098;42.678;23.364;2023-04-15T13:10:49;94256.44;;;19.09;26.76
6134;BME280;3098;42.678;23.364;2023-04-15T13:13:18;94287.09;;;18.98;26.96
6134;BME280;3098;42.678;23.364;2023-04-15T13:15:45;94280.72;;;19.30;26.28
6134;BME280;3098;42.678;23.364;2023-04-15T13:18:12;94273.44;;;19.24;26.49
6134;BME280;3098;42.678;23.364;2023-04-15T13:20:39;94169.38;;;18.49;26.80